Capetan Vassilis — C6S2085 — position and weather

sailwx.info

Track history (hours):
 
Tides and Currents Weather Stations Pressure Air Temp Water Temp Dewpoint Dewpoint Depression Visibility Wind Speed Wind Dir Waves Ship Positions

Capetan Vassilis

Last reported at 2014-Dec-18 07:34 UTC. Time now 2014-Dec-18 23:09 UTC.
Position N 41°22' E 029°39'.

Length 191 m; draft 7 m.

MMSI: 311552000.

Date/timePositionNaut miles runAvg speedWind from/ knotsBaromVisibWave heightAir tempDewpointWater temp
2014-Dec-18 07:34N 41°22' E 029°39'1413.8
2014-Dec-18 06:34N 41°18' E 029°22'1612.3
2014-Dec-18 05:14N 41°09' E 029°04'811.7
2014-Dec-18 04:33N 41°01' E 028°60'8 8.5
2014-Dec-18 03:33N 40°54' E 028°56'10 9.7
2014-Dec-18 02:32N 40°44' E 028°53'4 4.3
2014-Dec-18 01:33N 40°40' E 028°51'1 0.5
2014-Dec-18 00:32N 40°40' E 028°51'1 1.1
2014-Dec-17 23:33N 40°42' E 028°52'1 1.3
2014-Dec-17 22:33N 40°43' E 028°52'1 1.2
2014-Dec-17 21:33N 40°44' E 028°52'2 1.5
2014-Dec-17 20:33N 40°46' E 028°52'5 5.2
2014-Dec-17 19:33N 40°40' E 028°52'0 0.2
2014-Dec-17 18:33N 40°40' E 028°52'2 1.6
2014-Dec-17 17:31N 40°42' E 028°53'2 1.8
2014-Dec-17 16:32N 40°44' E 028°53'2 1.8
2014-Dec-17 15:29N 40°45' E 028°54'3 2.5
2014-Dec-17 14:28N 40°48' E 028°54'4 3.9
2014-Dec-17 13:33N 40°51' E 028°56'2 1.6
2014-Dec-17 12:32N 40°50' E 028°54'1212.4
2014-Dec-17 11:32N 40°50' E 028°37'22211.1
2014-Dec-16 15:31N 37°50' E 025°50'1414.3
2014-Dec-16 14:33N 37°36' E 025°52'1413.8
2014-Dec-16 13:33N 37°23' E 025°57'1413.9
2014-Dec-16 12:33N 37°11' E 026°05'1714.1
2014-Dec-16 11:21N 36°56' E 026°16'1214.1
2014-Dec-16 10:27N 36°47' E 026°26'1414.1
2014-Dec-16 09:30N 36°37' E 026°38'2914.8
2014-Dec-16 07:33N 36°16' E 027°02'  
Track history (hours):
 
Tides and Currents Weather Stations Pressure Air Temp Water Temp Dewpoint Dewpoint Depression Visibility Wind Speed Wind Dir Waves Ship Positions

Capetan Vassilis

Last reported at 2014-Dec-18 07:34 UTC. Time now 2014-Dec-18 23:09 UTC.
Position N 41°22' E 029°39'.

Length 191 m; draft 7 m.

MMSI: 311552000.

Date/timePositionNaut miles runAvg speedWind from/ knotsBaromVisibWave heightAir tempDewpointWater temp
2014-Dec-18 07:34N 41°22' E 029°39'1413.8
2014-Dec-18 06:34N 41°18' E 029°22'1612.3
2014-Dec-18 05:14N 41°09' E 029°04'811.7
2014-Dec-18 04:33N 41°01' E 028°60'8 8.5
2014-Dec-18 03:33N 40°54' E 028°56'10 9.7
2014-Dec-18 02:32N 40°44' E 028°53'4 4.3
2014-Dec-18 01:33N 40°40' E 028°51'1 0.5
2014-Dec-18 00:32N 40°40' E 028°51'1 1.1
2014-Dec-17 23:33N 40°42' E 028°52'1 1.3
2014-Dec-17 22:33N 40°43' E 028°52'1 1.2
2014-Dec-17 21:33N 40°44' E 028°52'2 1.5
2014-Dec-17 20:33N 40°46' E 028°52'5 5.2
2014-Dec-17 19:33N 40°40' E 028°52'0 0.2
2014-Dec-17 18:33N 40°40' E 028°52'2 1.6
2014-Dec-17 17:31N 40°42' E 028°53'2 1.8
2014-Dec-17 16:32N 40°44' E 028°53'2 1.8
2014-Dec-17 15:29N 40°45' E 028°54'3 2.5
2014-Dec-17 14:28N 40°48' E 028°54'4 3.9
2014-Dec-17 13:33N 40°51' E 028°56'2 1.6
2014-Dec-17 12:32N 40°50' E 028°54'1212.4
2014-Dec-17 11:32N 40°50' E 028°37'22211.1
2014-Dec-16 15:31N 37°50' E 025°50'1414.3
2014-Dec-16 14:33N 37°36' E 025°52'1413.8
2014-Dec-16 13:33N 37°23' E 025°57'1413.9
2014-Dec-16 12:33N 37°11' E 026°05'1714.1
2014-Dec-16 11:21N 36°56' E 026°16'1214.1
2014-Dec-16 10:27N 36°47' E 026°26'1414.1
2014-Dec-16 09:30N 36°37' E 026°38'2914.8
2014-Dec-16 07:33N 36°16' E 027°02'  

Dump ship's entire track history